
Distance (Route):
Temperature : 12.5°C
Humidity : 54.6%
Pressure : 0hPa| Receiver | Date | Latitude | Longitude | Direction | Speed | Altitude | Climb | Temperature | Humidity | Pressure | Voltage | Killtimer | Uptime | BKT | XDATA |
|---|---|---|---|---|---|---|---|---|---|---|---|---|---|---|---|
| LZ4TU-5 | 2026-08-31 07:05:30 | 42.45222 | 23.61097 | 133° | 9km/h | 2430m | -16.2m/s | 12.5°C | 54.6% | 0hPa | 0V | 08:18:00 | 00:00:00 | 00:00:00 | |
| LZ4TU-5 | 2026-08-31 07:05:25 | 42.45233 | 23.61085 | 161° | 13km/h | 2510m | -16.0m/s | 12.1°C | 51.7% | 0hPa | 0V | 08:18:00 | 00:00:00 | 00:00:00 | |
| LZ4TU-5 | 2026-08-31 07:05:21 | 42.45252 | 23.61077 | 167° | 22km/h | 2575m | -16.4m/s | 11.8°C | 50.0% | 0hPa | 0V | 08:18:00 | 00:00:00 | 00:00:00 | |
| LZ4TU-5 | 2026-08-31 07:05:16 | 42.45275 | 23.61071 | 169° | 24km/h | 2641m | -16.4m/s | 11.3°C | 54.6% | 0hPa | 0V | 08:18:00 | 00:00:00 | 00:00:00 | |
| LZ4TU-5 | 2026-08-31 07:05:12 | 42.45309 | 23.61055 | 155° | 29km/h | 2722m | -16.2m/s | 10.8°C | 68.3% | 0hPa | 0V | 08:18:00 | 00:00:00 | 00:00:00 | |
| LZ4TU-5 | 2026-08-31 07:05:08 | 42.45333 | 23.61036 | 153° | 29km/h | 2787m | -16.5m/s | 10.1°C | 72.2% | 0hPa | 0V | 08:18:00 | 00:00:00 | 00:00:00 | |
| LZ4TU-5 | 2026-08-31 07:05:03 | 42.45362 | 23.61012 | 148° | 27km/h | 2870m | -16.7m/s | 9.4°C | 77.6% | 0hPa | 0V | 08:19:00 | 00:00:00 | 00:00:00 | |
| LZ4TU-5 | 2026-08-31 07:04:59 | 42.45384 | 23.60990 | 150° | 27km/h | 2936m | -17.1m/s | 9.0°C | 76.0% | 0hPa | 0V | 08:19:00 | 00:00:00 | 00:00:00 | |
| LZ4TU-5 | 2026-08-31 07:04:54 | 42.45415 | 23.60964 | 153° | 29km/h | 3020m | -16.9m/s | 8.3°C | 78.0% | 0hPa | 0V | 08:19:00 | 00:00:00 | 00:00:00 | |
| LZ4TU-5 | 2026-08-31 07:04:49 | 42.45448 | 23.60943 | 159° | 31km/h | 3104m | -16.5m/s | 7.7°C | 75.9% | 0hPa | 0V | 08:19:00 | 00:00:00 | 00:00:00 | |
| LZ3DJ-18 | 2026-08-31 07:04:47 | 42.45462 | 23.60936 | 157° | 31km/h | 3137m | -16.9m/s | 7.5°C | 74.1% | 0hPa | 0V | 00:00:00 | 00:00:00 | 00:00:00 | |
| LZ4TU-5 | 2026-08-31 07:04:44 | 42.45483 | 23.60922 | 150° | 31km/h | 3188m | -16.9m/s | 7.2°C | 74.8% | 0hPa | 0V | 08:19:00 | 00:00:00 | 00:00:00 | |
| LZ4TU-5 | 2026-08-31 07:04:40 | 42.45510 | 23.60902 | 149° | 31km/h | 3256m | -16.8m/s | 6.6°C | 76.6% | 0hPa | 0V | 08:19:00 | 00:00:00 | 00:00:00 | |
| LZ4TU-5 | 2026-08-31 07:04:35 | 42.45544 | 23.60875 | 149° | 31km/h | 3340m | -16.9m/s | 5.9°C | 78.4% | 0hPa | 0V | 08:19:00 | 00:00:00 | 00:00:00 | |
| LZ4TU-5 | 2026-08-31 07:04:31 | 42.45571 | 23.60855 | 153° | 27km/h | 3407m | -17.1m/s | 5.3°C | 80.1% | 0hPa | 0V | 08:19:00 | 00:00:00 | 00:00:00 | |
| LZ4TU-5 | 2026-08-31 07:04:26 | 42.45606 | 23.60833 | 155° | 29km/h | 3492m | -17.4m/s | 4.9°C | 75.3% | 0hPa | 0V | 08:19:00 | 00:00:00 | 00:00:00 | |
| LZ4TU-5 | 2026-08-31 07:04:21 | 42.45643 | 23.60810 | 156° | 31km/h | 3578m | -17.7m/s | 4.2°C | 76.1% | 0hPa | 0V | 08:19:00 | 00:00:00 | 00:00:00 | |
| LZ4TU-5 | 2026-08-31 07:04:16 | 42.45672 | 23.60791 | 154° | 31km/h | 3648m | -17.8m/s | 3.7°C | 75.9% | 0hPa | 0V | 08:19:00 | 00:00:00 | 00:00:00 | |
| LZ4TU-5 | 2026-08-31 07:04:12 | 42.45710 | 23.60766 | 150° | 33km/h | 3736m | -17.9m/s | 3.2°C | 71.8% | 0hPa | 0V | 00:00:00 | 00:00:00 | 00:00:00 | |
| LZ4TU-5 | 2026-08-31 07:04:08 | 42.45740 | 23.60742 | 148° | 35km/h | 3806m | -17.8m/s | 2.9°C | 69.6% | 0hPa | 0V | 00:00:00 | 00:00:00 | 00:00:00 | |
| LZ4TU-5 | 2026-08-31 07:04:04 | 42.45770 | 23.60715 | 145° | 33km/h | 3875m | -17.4m/s | 2.3°C | 75.1% | 0hPa | 0V | 00:00:00 | 00:00:00 | 00:00:00 | |
| LZ4TU-5 | 2026-08-31 07:03:59 | 42.45806 | 23.60686 | 150° | 29km/h | 3961m | -18.0m/s | 1.9°C | 69.1% | 0hPa | 0V | 00:00:00 | 00:00:00 | 00:00:00 | |
| LZ4TU-5 | 2026-08-31 07:03:55 | 42.45834 | 23.60665 | 150° | 29km/h | 4032m | -17.9m/s | 1.7°C | 45.5% | 0hPa | 0V | 00:00:00 | 00:00:00 | 00:00:00 | |
| LZ4TU-5 | 2026-08-31 07:03:50 | 42.45865 | 23.60638 | 145° | 29km/h | 4121m | -17.9m/s | 1.3°C | 48.0% | 0hPa | 0V | 00:00:00 | 00:00:00 | 00:00:00 | |
| LZ4TU-5 | 2026-08-31 07:03:45 | 42.45897 | 23.60609 | 144° | 27km/h | 4208m | -17.9m/s | 0.8°C | 36.0% | 0hPa | 0V | 00:00:00 | 00:00:00 | 00:00:00 | |
| LZ3DJ-18 | 2026-08-31 07:03:33 | 42.45957 | 23.60546 | 145° | 20km/h | 4417m | -18.0m/s | 0.1°C | 36.8% | 0hPa | 0V | 00:00:00 | 00:00:00 | 00:00:00 | |
| LZ3DJ-18 | 2026-08-31 07:03:04 | 42.46042 | 23.60466 | 145° | 22km/h | 4953m | -17.6m/s | -4.0°C | 49.5% | 0hPa | 0V | 08:21:00 | 00:00:00 | 00:00:00 | |
| LZ3DJ-18 | 2026-08-31 07:02:44 | 42.46141 | 23.60367 | 145° | 29km/h | 5303m | -17.6m/s | -6.2°C | 50.9% | 0hPa | 0V | 08:21:00 | 00:00:00 | 00:00:00 | |
| LZ4TU-5 | 2026-08-31 07:02:41 | 42.46159 | 23.60349 | 142° | 31km/h | 5355m | -18.0m/s | -6.7°C | 53.9% | 0hPa | 0V | 00:00:00 | 00:00:00 | 00:00:00 | |
| LZ4TU-5 | 2026-08-31 07:02:36 | 42.46191 | 23.60313 | 139° | 35km/h | 5446m | -17.9m/s | -6.9°C | 54.8% | 0hPa | 0V | 00:00:00 | 00:00:00 | 00:00:00 | |
| LZ3DJ-18 | 2026-08-31 07:02:23 | 42.46266 | 23.60219 | 138° | 31km/h | 5678m | -17.7m/s | -7.1°C | 12.6% | 0hPa | 0V | 08:21:00 | 00:00:00 | 00:00:00 | |
| LZ3DJ-18 | 2026-08-31 07:02:01 | 42.46369 | 23.60112 | 147° | 20km/h | 6073m | -18.7m/s | -8.8°C | 3.0% | 0hPa | 0V | 08:21:00 | 00:00:00 | 00:00:00 | |
| LZ3DJ-18 | 2026-08-31 07:01:40 | 42.46452 | 23.60044 | 145° | 22km/h | 6468m | -18.8m/s | -11.7°C | 4.4% | 0hPa | 0V | 08:21:00 | 00:00:00 | 00:00:00 | |
| LZ4TU-5 | 2026-08-31 07:01:31 | 42.46490 | 23.60012 | 154° | 16km/h | 6640m | -19.5m/s | -12.8°C | 4.0% | 0hPa | 0V | 00:00:00 | 00:00:00 | 00:00:00 | |
| LZ4TU-5 | 2026-08-31 07:01:27 | 42.46504 | 23.60001 | 162° | 16km/h | 6717m | -19.6m/s | -13.3°C | 3.8% | 0hPa | 0V | 00:00:00 | 00:00:00 | 00:00:00 | |
| LZ3DJ-18 | 2026-08-31 07:01:19 | 42.46536 | 23.59987 | 174° | 18km/h | 6871m | -19.9m/s | -14.4°C | 4.1% | 0hPa | 0V | 00:00:00 | 00:00:00 | 00:00:00 | |
| LZ3DJ-18 | 2026-08-31 07:00:58 | 42.46646 | 23.59970 | 170° | 24km/h | 7287m | -20.5m/s | -17.9°C | 7.4% | 0hPa | 0V | 00:00:00 | 00:00:00 | 00:00:00 | |
| LZ4TU-5 | 2026-08-31 07:00:22 | 42.46887 | 23.59896 | 173° | 24km/h | 8015m | -20.9m/s | -23.5°C | 8.6% | 0hPa | 0V | 00:00:00 | 00:00:00 | 00:00:00 | |
| LZ4TU-5 | 2026-08-31 07:00:17 | 42.46914 | 23.59894 | 180° | 22km/h | 8114m | -21.1m/s | -24.4°C | 0% | 0hPa | 0V | 00:00:00 | 00:00:00 | 00:00:00 | |
| LZ3DJ-18 | 2026-08-31 06:59:22 | 42.47392 | 23.59848 | 156° | 44km/h | 9589m | -30.8m/s | -36.2°C | 17.7% | 0hPa | 0V | 08:24:00 | 00:00:00 | 00:00:00 | |
| LZ3DJ-18 | 2026-08-31 06:59:02 | 42.47591 | 23.59708 | 150° | 46km/h | 10192m | -31.5m/s | -41.4°C | 20.3% | 0hPa | 0V | 00:00:00 | 00:00:00 | 00:00:00 | |
| LZ3DJ-18 | 2026-08-31 06:58:41 | 42.47779 | 23.59506 | 137° | 49km/h | 10838m | -32.5m/s | -46.9°C | 31.0% | 0hPa | 0V | 00:00:00 | 00:00:00 | 00:00:00 | |
| LZ4TU-5 | 2026-08-31 06:57:46 | 42.48348 | 23.58896 | 141° | 62km/h | 12642m | -36.1m/s | -56.4°C | 10.4% | 0hPa | 0V | 00:00:00 | 00:00:00 | 00:00:00 | |
| LZ4TU-5 | 2026-08-31 06:57:41 | 42.48401 | 23.58830 | 138° | 51km/h | 12815m | -36.1m/s | -56.0°C | 8.8% | 0hPa | 0V | 00:00:00 | 00:00:00 | 00:00:00 | |
| LZ3DJ-18 | 2026-08-31 06:57:00 | 42.48693 | 23.58259 | 120° | 55km/h | 14313m | -39.9m/s | -58.7°C | 4.8% | 0hPa | 0V | 08:26:00 | 00:00:00 | 00:00:00 | |
| LZ3DJ-18 | 2026-08-31 06:56:40 | 42.48845 | 23.58011 | 137° | 26km/h | 15099m | -42.7m/s | -59.2°C | 3.2% | 0hPa | 0V | 08:26:00 | 00:00:00 | 00:00:00 | |
| LZ3DJ-18 | 2026-08-31 06:56:20 | 42.48890 | 23.57826 | 93° | 44km/h | 15947m | -43.3m/s | -61.8°C | 3.0% | 0hPa | 0V | 08:27:00 | 00:00:00 | 00:00:00 | |
| LZ3DJ-18 | 2026-08-31 06:55:59 | 42.48934 | 23.57636 | 126° | 15km/h | 16909m | -46.9m/s | -58.4°C | 2.1% | 0hPa | 0V | 08:27:00 | 00:00:00 | 00:00:00 | |
| LZ3DJ-18 | 2026-08-31 06:55:39 | 42.48955 | 23.57506 | 75° | 20km/h | 17854m | -49.8m/s | -58.4°C | 2.0% | 0hPa | 0V | 08:28:00 | 00:00:00 | 00:00:00 | |
| LZ3DJ-18 | 2026-08-31 06:55:18 | 42.48964 | 23.57433 | 62° | 5km/h | 18879m | -52.9m/s | -57.4°C | 1.9% | 0hPa | 0V | 08:28:00 | 00:00:00 | 00:00:00 | |
| LZ3DJ-18 | 2026-08-31 06:54:52 | 42.48917 | 23.57436 | 4° | 2km/h | 20348m | -58.2m/s | -55.1°C | 1.5% | 0hPa | 0V | 08:28:00 | 00:00:00 | 00:00:00 | |
| LZ3DJ-18 | 2026-08-31 06:54:30 | 42.48942 | 23.57481 | 274° | 16km/h | 21661m | -64.0m/s | -54.1°C | 1.3% | 0hPa | 0V | 00:00:00 | 00:00:00 | 00:00:00 | |
| LZ3DJ-18 | 2026-08-31 06:51:07 | 42.48444 | 23.58274 | 263° | 15km/h | 26744m | 5.3m/s | -49.0°C | 1.0% | 0hPa | 0V | 00:00:00 | 00:00:00 | 00:00:00 | |
| LZ4TU-5 | 2026-08-31 06:51:03 | 42.48441 | 23.58297 | 301° | 16km/h | 26719m | 7.3m/s | -49.3°C | 1.1% | 0hPa | 0V | 00:00:00 | 00:00:00 | 00:00:00 | |
| LZ3DJ-18 | 2026-08-31 06:50:42 | 42.48396 | 23.58335 | 312° | 13km/h | 26596m | 6.7m/s | -50.0°C | 1.1% | 0hPa | 0V | 00:00:00 | 00:00:00 | 00:00:00 | |
| LZ3DJ-18 | 2026-08-31 06:49:57 | 42.48247 | 23.58527 | 304° | 24km/h | 26321m | 5.2m/s | -50.5°C | 1.2% | 0hPa | 0V | 00:00:00 | 00:00:00 | 00:00:00 | |
| LZ4TU-5 | 2026-08-31 06:49:39 | 42.48181 | 23.58610 | 331° | 20km/h | 26212m | 6.1m/s | -50.7°C | 1.2% | 0hPa | 0V | 00:00:00 | 00:00:00 | 00:00:00 | |
| LZ3DJ-18 | 2026-08-31 06:49:36 | 42.48169 | 23.58621 | 327° | 22km/h | 26192m | 8.0m/s | -50.7°C | 1.2% | 0hPa | 0V | 00:00:00 | 00:00:00 | 00:00:00 | |
| LZ4TU-5 | 2026-08-31 06:49:34 | 42.48159 | 23.58631 | 320° | 24km/h | 26180m | 5.2m/s | -50.9°C | 1.2% | 0hPa | 0V | 00:00:00 | 00:00:00 | 00:00:00 | |
| LZ4TU-5 | 2026-08-31 06:48:10 | 42.47869 | 23.58843 | 302° | 27km/h | 25652m | 5.4m/s | -49.5°C | 1.1% | 0hPa | 0V | 00:00:00 | 00:00:00 | 00:00:00 | |
| LZ4TU-5 | 2026-08-31 06:48:06 | 42.47851 | 23.58882 | 302° | 35km/h | 25627m | 6.8m/s | -49.6°C | 1.1% | 0hPa | 0V | 00:00:00 | 00:00:00 | 00:00:00 | |
| LZ4TU-5 | 2026-08-31 06:45:24 | 42.47639 | 23.59386 | 352° | 16km/h | 24667m | 5.7m/s | -52.1°C | 1.2% | 0hPa | 0V | 00:00:00 | 00:00:00 | 00:00:00 | |
| LZ4TU-5 | 2026-08-31 06:45:20 | 42.47625 | 23.59388 | 350° | 15km/h | 24644m | 5.6m/s | -52.5°C | 1.2% | 0hPa | 0V | 00:00:00 | 00:00:00 | 00:00:00 | |
| LZ4TU-5 | 2026-08-31 06:43:53 | 42.47400 | 23.59883 | 277° | 24km/h | 24118m | 7.0m/s | -53.1°C | 1.3% | 0hPa | 0V | 00:00:00 | 00:00:00 | 00:00:00 | |
| LZ3DJ-18 | 2026-08-31 06:43:32 | 42.47390 | 23.60010 | 262° | 15km/h | 23993m | 5.6m/s | -53.3°C | 1.4% | 0hPa | 0V | 00:00:00 | 00:00:00 | 00:00:00 | |
| LZ3DJ-18 | 2026-08-31 06:43:09 | 42.47346 | 23.60103 | 328° | 22km/h | 23856m | 4.8m/s | -53.1°C | 1.3% | 0hPa | 0V | 00:00:00 | 00:00:00 | 00:00:00 | |
| LZ3DJ-18 | 2026-08-31 06:42:28 | 42.47242 | 23.60282 | 243° | 7km/h | 23614m | 6.4m/s | -52.8°C | 1.3% | 0hPa | 0V | 00:00:00 | 00:00:00 | 00:00:00 | |
| LZ4TU-5 | 2026-08-31 06:42:11 | 42.47243 | 23.60335 | 325° | 18km/h | 23512m | 5.2m/s | -52.9°C | 1.3% | 0hPa | 0V | 00:00:00 | 00:00:00 | 00:00:00 | |
| LZ3DJ-18 | 2026-08-31 06:42:07 | 42.47233 | 23.60351 | 286° | 15km/h | 23491m | 3.9m/s | -52.9°C | 1.3% | 0hPa | 0V | 00:00:00 | 00:00:00 | 00:00:00 | |
| LZ4TU-5 | 2026-08-31 06:42:06 | 42.47232 | 23.60356 | 289° | 13km/h | 23486m | 6.3m/s | -52.9°C | 1.3% | 0hPa | 0V | 00:00:00 | 00:00:00 | 00:00:00 | |
| LZ3DJ-18 | 2026-08-31 06:41:47 | 42.47189 | 23.60408 | 0° | 0km/h | 23372m | 7.0m/s | -52.9°C | 1.3% | 0hPa | 0V | 00:00:00 | 00:00:00 | 00:00:00 | |
| LZ3DJ-18 | 2026-08-31 06:41:27 | 42.47169 | 23.60441 | 328° | 9km/h | 23253m | 6.7m/s | -53.9°C | 1.3% | 0hPa | 0V | 00:00:00 | 00:00:00 | 00:00:00 | |
| LZ3DJ-18 | 2026-08-31 06:41:06 | 42.47118 | 23.60530 | 298° | 16km/h | 23133m | 6.9m/s | -54.6°C | 1.4% | 0hPa | 0V | 00:00:00 | 00:00:00 | 00:00:00 | |
| LZ3DJ-18 | 2026-08-31 06:40:46 | 42.47112 | 23.60591 | 183° | 5km/h | 23021m | 4.7m/s | -54.8°C | 1.4% | 0hPa | 0V | 00:00:00 | 00:00:00 | 00:00:00 | |
| LZ4TU-5 | 2026-08-31 06:40:39 | 42.47106 | 23.60588 | 353° | 9km/h | 22983m | 5.3m/s | -54.7°C | 1.4% | 0hPa | 0V | 00:00:00 | 00:00:00 | 00:00:00 | |
| LZ4TU-5 | 2026-08-31 06:40:34 | 42.47094 | 23.60594 | 300° | 11km/h | 22955m | 5.6m/s | -54.7°C | 1.4% | 0hPa | 0V | 00:00:00 | 00:00:00 | 00:00:00 | |
| LZ3DJ-18 | 2026-08-31 06:40:05 | 42.47009 | 23.60678 | 335° | 15km/h | 22793m | 5.9m/s | -55.6°C | 1.5% | 0hPa | 0V | 00:00:00 | 00:00:00 | 00:00:00 | |
| LZ3DJ-18 | 2026-08-31 06:39:45 | 42.46912 | 23.60756 | 331° | 11km/h | 22684m | 4.8m/s | -55.7°C | 1.4% | 0hPa | 0V | 00:00:00 | 00:00:00 | 00:00:00 | |
| LZ3DJ-18 | 2026-08-31 06:39:25 | 42.46858 | 23.60882 | 283° | 22km/h | 22573m | 5.7m/s | -56.7°C | 1.6% | 0hPa | 0V | 00:00:00 | 00:00:00 | 00:00:00 | |
| LZ4TU-5 | 2026-08-31 06:39:09 | 42.46859 | 23.60958 | 238° | 11km/h | 22481m | 6.0m/s | -56.5°C | 1.6% | 0hPa | 0V | 00:00:00 | 00:00:00 | 00:00:00 | |
| LZ4TU-5 | 2026-08-31 06:39:05 | 42.46859 | 23.60973 | 286° | 16km/h | 22457m | 5.2m/s | -56.3°C | 1.6% | 0hPa | 0V | 00:00:00 | 00:00:00 | 00:00:00 | |
| LZ3DJ-18 | 2026-08-31 06:39:04 | 42.46858 | 23.60979 | 292° | 16km/h | 22452m | 4.5m/s | -56.1°C | 1.5% | 0hPa | 0V | 00:00:00 | 00:00:00 | 00:00:00 | |
| LZ3DJ-18 | 2026-08-31 06:38:43 | 42.46850 | 23.61058 | 274° | 11km/h | 22333m | 5.4m/s | -55.8°C | 1.6% | 0hPa | 0V | 00:00:00 | 00:00:00 | 00:00:00 | |
| LZ3DJ-18 | 2026-08-31 06:38:22 | 42.46836 | 23.61158 | 269° | 20km/h | 22209m | 7.8m/s | -55.7°C | 1.6% | 0hPa | 0V | 00:00:00 | 00:00:00 | 00:00:00 | |
| LZ3DJ-18 | 2026-08-31 06:38:02 | 42.46834 | 23.61303 | 278° | 24km/h | 22090m | 6.2m/s | -54.8°C | 1.5% | 0hPa | 0V | 00:00:00 | 00:00:00 | 00:00:00 | |
| LZ3DJ-18 | 2026-08-31 06:37:41 | 42.46821 | 23.61486 | 283° | 22km/h | 21969m | 5.5m/s | -54.8°C | 1.6% | 0hPa | 0V | 00:00:00 | 00:00:00 | 00:00:00 | |
| LZ4TU-5 | 2026-08-31 06:36:21 | 42.46923 | 23.61899 | 225° | 13km/h | 21505m | 4.9m/s | -55.3°C | 1.5% | 0hPa | 0V | 00:00:00 | 00:00:00 | 00:00:00 | |
| LZ4TU-5 | 2026-08-31 06:36:16 | 42.46938 | 23.61909 | 191° | 15km/h | 21477m | 4.9m/s | -55.3°C | 1.5% | 0hPa | 0V | 00:00:00 | 00:00:00 | 00:00:00 | |
| LZ4TU-5 | 2026-08-31 06:34:55 | 42.47137 | 23.62018 | 100° | 2km/h | 21022m | 5.6m/s | -55.9°C | 1.6% | 0hPa | 0V | 00:00:00 | 00:00:00 | 00:00:00 | |
| LZ4TU-5 | 2026-08-31 06:34:51 | 42.47144 | 23.62020 | 198° | 11km/h | 21001m | 5.0m/s | -55.9°C | 1.6% | 0hPa | 0V | 00:00:00 | 00:00:00 | 00:00:00 | |
| LZ4TU-5 | 2026-08-31 06:33:28 | 42.47250 | 23.61967 | 149° | 5km/h | 20559m | 4.8m/s | -55.4°C | 1.5% | 0hPa | 0V | 00:00:00 | 00:00:00 | 00:00:00 | |
| LZ4TU-5 | 2026-08-31 06:33:23 | 42.47249 | 23.61957 | 356° | 5km/h | 20531m | 5.2m/s | -55.5°C | 1.6% | 0hPa | 0V | 00:00:00 | 00:00:00 | 00:00:00 | |
| LZ4TU-5 | 2026-08-31 06:31:59 | 42.47105 | 23.62068 | 329° | 18km/h | 20082m | 5.7m/s | -55.9°C | 1.5% | 0hPa | 0V | 00:00:00 | 00:00:00 | 00:00:00 | |
| LZ4TU-5 | 2026-08-31 06:31:54 | 42.47092 | 23.62096 | 285° | 16km/h | 20054m | 5.5m/s | -56.1°C | 1.6% | 0hPa | 0V | 00:00:00 | 00:00:00 | 00:00:00 | |
| LZ4TU-5 | 2026-08-31 06:30:30 | 42.47094 | 23.62279 | 56° | 9km/h | 19600m | 5.3m/s | -56.9°C | 1.7% | 0hPa | 0V | 00:00:00 | 00:00:00 | 00:00:00 | |
| LZ4TU-5 | 2026-08-31 06:30:26 | 42.47093 | 23.62267 | 106° | 9km/h | 19579m | 4.0m/s | -56.9°C | 1.6% | 0hPa | 0V | 00:00:00 | 00:00:00 | 00:00:00 | |
| LZ3DJ-18 | 2026-08-31 06:29:14 | 42.46882 | 23.62108 | 2° | 16km/h | 19205m | 5.8m/s | -58.2°C | 1.8% | 0hPa | 0V | 00:00:00 | 00:00:00 | 00:00:00 | |
| LZ4TU-5 | 2026-08-31 06:29:05 | 42.46834 | 23.62122 | 338° | 20km/h | 19156m | 4.0m/s | -57.8°C | 1.8% | 0hPa | 0V | 00:00:00 | 00:00:00 | 00:00:00 | |
| LZ4TU-5 | 2026-08-31 06:29:00 | 42.46806 | 23.62136 | 350° | 27km/h | 19130m | 5.3m/s | -57.8°C | 1.8% | 0hPa | 0V | 00:00:00 | 00:00:00 | 00:00:00 | |
| LZ3DJ-18 | 2026-08-31 06:28:50 | 42.46762 | 23.62162 | 321° | 11km/h | 19077m | 4.9m/s | -57.6°C | 1.7% | 0hPa | 0V | 00:00:00 | 00:00:00 | 00:00:00 | |
| LZ3DJ-18 | 2026-08-31 06:28:28 | 42.46709 | 23.62188 | 28° | 4km/h | 18958m | 5.8m/s | -57.8°C | 1.8% | 0hPa | 0V | 00:00:00 | 00:00:00 | 00:00:00 | |
| LZ4TU-5 | 2026-08-31 06:27:38 | 42.46753 | 23.61982 | 128° | 20km/h | 18692m | 6.1m/s | -58.5°C | 2.0% | 0hPa | 0V | 00:00:00 | 00:00:00 | 00:00:00 | |
| LZ4TU-5 | 2026-08-31 06:27:33 | 42.46769 | 23.61959 | 146° | 11km/h | 18666m | 6.0m/s | -58.4°C | 2.0% | 0hPa | 0V | 00:00:00 | 00:00:00 | 00:00:00 | |
| LZ3DJ-18 | 2026-08-31 06:27:09 | 42.46850 | 23.61899 | 141° | 18km/h | 18540m | 6.1m/s | -59.1°C | 2.1% | 0hPa | 0V | 00:00:00 | 00:00:00 | 00:00:00 | |
| LZ3DJ-18 | 2026-08-31 06:26:46 | 42.46925 | 23.61839 | 151° | 11km/h | 18417m | 5.1m/s | -59.8°C | 2.1% | 0hPa | 0V | 00:00:00 | 00:00:00 | 00:00:00 | |
| LZ3DJ-18 | 2026-08-31 06:26:21 | 42.46934 | 23.61740 | 54° | 16km/h | 18287m | 4.8m/s | -60.5°C | 2.3% | 0hPa | 0V | 00:00:00 | 00:00:00 | 00:00:00 | |
| LZ4TU-5 | 2026-08-31 06:26:12 | 42.46923 | 23.61710 | 59° | 15km/h | 18241m | 5.8m/s | -60.6°C | 2.3% | 0hPa | 0V | 00:00:00 | 00:00:00 | 00:00:00 | |
| LZ4TU-5 | 2026-08-31 06:26:08 | 42.46917 | 23.61691 | 78° | 16km/h | 18220m | 4.8m/s | -60.5°C | 2.2% | 0hPa | 0V | 00:00:00 | 00:00:00 | 00:00:00 | |
| LZ3DJ-18 | 2026-08-31 06:25:56 | 42.46897 | 23.61614 | 59° | 20km/h | 18157m | 5.4m/s | -60.4°C | 2.3% | 0hPa | 0V | 00:00:00 | 00:00:00 | 00:00:00 | |
| LZ3DJ-18 | 2026-08-31 06:25:36 | 42.46852 | 23.61442 | 82° | 26km/h | 18056m | 4.2m/s | -60.5°C | 2.3% | 0hPa | 0V | 00:00:00 | 00:00:00 | 00:00:00 | |
| LZ3DJ-18 | 2026-08-31 06:25:13 | 42.46770 | 23.61251 | 54° | 24km/h | 17943m | 4.3m/s | -59.9°C | 2.2% | 0hPa | 0V | 00:00:00 | 00:00:00 | 00:00:00 | |
| LZ3DJ-18 | 2026-08-31 06:24:52 | 42.46728 | 23.61121 | 79° | 20km/h | 17841m | 5.2m/s | -59.7°C | 2.2% | 0hPa | 0V | 00:00:00 | 00:00:00 | 00:00:00 | |
| LZ4TU-5 | 2026-08-31 06:24:45 | 42.46732 | 23.61060 | 92° | 18km/h | 17799m | 5.4m/s | -59.4°C | 2.1% | 0hPa | 0V | 00:00:00 | 00:00:00 | 00:00:00 | |
| LZ4TU-5 | 2026-08-31 06:24:40 | 42.46729 | 23.61029 | 85° | 16km/h | 17773m | 4.5m/s | -59.3°C | 2.1% | 0hPa | 0V | 00:00:00 | 00:00:00 | 00:00:00 | |
| LZ3DJ-18 | 2026-08-31 06:24:30 | 42.46739 | 23.60959 | 99° | 18km/h | 17726m | 5.6m/s | -60.1°C | 2.2% | 0hPa | 0V | 00:00:00 | 00:00:00 | 00:00:00 | |
| LZ3DJ-18 | 2026-08-31 06:24:08 | 42.46747 | 23.60784 | 114° | 29km/h | 17617m | 5.5m/s | -60.3°C | 2.3% | 0hPa | 0V | 00:00:00 | 00:00:00 | 00:00:00 | |
| LZ3DJ-18 | 2026-08-31 06:23:46 | 42.46814 | 23.60568 | 113° | 31km/h | 17508m | 5.2m/s | -59.9°C | 2.2% | 0hPa | 0V | 00:00:00 | 00:00:00 | 00:00:00 | |
| LZ3DJ-18 | 2026-08-31 06:23:26 | 42.46853 | 23.60394 | 106° | 27km/h | 17401m | 5.9m/s | -59.6°C | 2.2% | 0hPa | 0V | 00:00:00 | 00:00:00 | 00:00:00 | |
| LZ4TU-5 | 2026-08-31 06:23:17 | 42.46856 | 23.60307 | 98° | 29km/h | 17354m | 4.4m/s | -59.3°C | 2.2% | 0hPa | 0V | 00:00:00 | 00:00:00 | 00:00:00 | |
| LZ4TU-5 | 2026-08-31 06:23:13 | 42.46859 | 23.60271 | 100° | 22km/h | 17334m | 4.0m/s | -59.5°C | 2.3% | 0hPa | 0V | 00:00:00 | 00:00:00 | 00:00:00 | |
| LZ3DJ-18 | 2026-08-31 06:23:05 | 42.46852 | 23.60206 | 82° | 26km/h | 17292m | 5.9m/s | -59.4°C | 2.2% | 0hPa | 0V | 00:00:00 | 00:00:00 | 00:00:00 | |
| LZ3DJ-18 | 2026-08-31 06:22:44 | 42.46822 | 23.60106 | 65° | 11km/h | 17175m | 5.6m/s | -59.4°C | 2.2% | 0hPa | 0V | 00:00:00 | 00:00:00 | 00:00:00 | |
| LZ3DJ-18 | 2026-08-31 06:22:23 | 42.46828 | 23.60048 | 138° | 9km/h | 17062m | 5.3m/s | -59.0°C | 2.2% | 0hPa | 0V | 00:00:00 | 00:00:00 | 00:00:00 | |
| LZ3DJ-18 | 2026-08-31 06:22:03 | 42.46888 | 23.59987 | 146° | 24km/h | 16950m | 4.1m/s | -59.2°C | 2.2% | 0hPa | 0V | 00:00:00 | 00:00:00 | 00:00:00 | |
| LZ4TU-5 | 2026-08-31 06:21:44 | 42.46976 | 23.59858 | 130° | 22km/h | 16848m | 4.6m/s | -58.9°C | 2.2% | 0hPa | 0V | 00:00:00 | 00:00:00 | 00:00:00 | |
| LZ3DJ-18 | 2026-08-31 06:21:42 | 42.46980 | 23.59852 | 133° | 26km/h | 16843m | 5.3m/s | -58.7°C | 2.2% | 0hPa | 0V | 00:00:00 | 00:00:00 | 00:00:00 | |
| LZ4TU-5 | 2026-08-31 06:21:39 | 42.46999 | 23.59823 | 131° | 31km/h | 16822m | 5.1m/s | -58.9°C | 2.2% | 0hPa | 0V | 00:00:00 | 00:00:00 | 00:00:00 | |
| LZ3DJ-18 | 2026-08-31 06:21:22 | 42.47068 | 23.59695 | 112° | 29km/h | 16734m | 4.9m/s | -59.7°C | 2.4% | 0hPa | 0V | 00:00:00 | 00:00:00 | 00:00:00 | |
| LZ3DJ-18 | 2026-08-31 06:21:01 | 42.47153 | 23.59517 | 133° | 29km/h | 16628m | 4.3m/s | -59.3°C | 2.4% | 0hPa | 0V | 00:00:00 | 00:00:00 | 00:00:00 | |
| LZ3DJ-18 | 2026-08-31 06:20:40 | 42.47248 | 23.59332 | 121° | 33km/h | 16525m | 4.5m/s | -59.2°C | 2.4% | 0hPa | 0V | 00:00:00 | 00:00:00 | 00:00:00 | |
| LZ3DJ-18 | 2026-08-31 06:20:19 | 42.47311 | 23.59126 | 107° | 31km/h | 16427m | 4.5m/s | -59.8°C | 2.7% | 0hPa | 0V | 00:00:00 | 00:00:00 | 00:00:00 | |
| LZ4TU-5 | 2026-08-31 06:20:18 | 42.47313 | 23.59116 | 102° | 33km/h | 16422m | 5.5m/s | -59.7°C | 2.7% | 0hPa | 0V | 00:00:00 | 00:00:00 | 00:00:00 | |
| LZ4TU-5 | 2026-08-31 06:20:13 | 42.47326 | 23.59047 | 106° | 44km/h | 16398m | 3.8m/s | -59.8°C | 2.8% | 0hPa | 0V | 00:00:00 | 00:00:00 | 00:00:00 | |
| LZ3DJ-18 | 2026-08-31 06:19:58 | 42.47369 | 23.58862 | 116° | 47km/h | 16329m | 4.1m/s | -59.5°C | 2.6% | 0hPa | 0V | 00:00:00 | 00:00:00 | 00:00:00 | |
| LZ3DJ-18 | 2026-08-31 06:19:38 | 42.47490 | 23.58543 | 113° | 53km/h | 16228m | 2.8m/s | -60.1°C | 2.9% | 0hPa | 0V | 00:00:00 | 00:00:00 | 00:00:00 | |
| LZ3DJ-18 | 2026-08-31 06:19:18 | 42.47583 | 23.58177 | 101° | 64km/h | 16130m | 3.7m/s | -60.8°C | 3.3% | 0hPa | 0V | 00:00:00 | 00:00:00 | 00:00:00 | |
| LZ3DJ-18 | 2026-08-31 06:18:57 | 42.47623 | 23.57740 | 97° | 57km/h | 16025m | 5.7m/s | -61.7°C | 3.8% | 0hPa | 0V | 00:00:00 | 00:00:00 | 00:00:00 | |
| LZ4TU-5 | 2026-08-31 06:18:50 | 42.47637 | 23.57614 | 97° | 49km/h | 15990m | 5.6m/s | -61.7°C | 3.7% | 0hPa | 0V | 00:00:00 | 00:00:00 | 00:00:00 | |
| LZ4TU-5 | 2026-08-31 06:18:46 | 42.47640 | 23.57546 | 92° | 51km/h | 15968m | 6.4m/s | -61.9°C | 3.7% | 0hPa | 0V | 00:00:00 | 00:00:00 | 00:00:00 | |
| LZ3DJ-18 | 2026-08-31 06:18:36 | 42.47647 | 23.57371 | 94° | 51km/h | 15918m | 4.5m/s | -62.0°C | 3.9% | 0hPa | 0V | 00:00:00 | 00:00:00 | 00:00:00 | |
| LZ3DJ-18 | 2026-08-31 06:18:15 | 42.47642 | 23.57062 | 84° | 38km/h | 15809m | 5.0m/s | -61.6°C | 3.9% | 0hPa | 0V | 00:00:00 | 00:00:00 | 00:00:00 | |
| LZ3DJ-18 | 2026-08-31 06:17:55 | 42.47640 | 23.56841 | 90° | 27km/h | 15710m | 4.6m/s | -60.8°C | 3.8% | 0hPa | 0V | 00:00:00 | 00:00:00 | 00:00:00 | |
| LZ3DJ-18 | 2026-08-31 06:17:34 | 42.47640 | 23.56672 | 86° | 15km/h | 15604m | 5.0m/s | -61.0°C | 4.4% | 0hPa | 0V | 00:00:00 | 00:00:00 | 00:00:00 | |
| LZ4TU-5 | 2026-08-31 06:17:25 | 42.47658 | 23.56611 | 111° | 24km/h | 15554m | 5.2m/s | -60.9°C | 4.7% | 0hPa | 0V | 00:00:00 | 00:00:00 | 00:00:00 | |
| LZ4TU-5 | 2026-08-31 06:17:20 | 42.47666 | 23.56577 | 109° | 18km/h | 15528m | 4.5m/s | -60.7°C | 4.7% | 0hPa | 0V | 00:00:00 | 00:00:00 | 00:00:00 | |
| LZ3DJ-18 | 2026-08-31 06:17:14 | 42.47679 | 23.56539 | 121° | 22km/h | 15496m | 4.9m/s | -60.4°C | 4.6% | 0hPa | 0V | 00:00:00 | 00:00:00 | 00:00:00 | |
| LZ3DJ-18 | 2026-08-31 06:16:53 | 42.47754 | 23.56408 | 131° | 31km/h | 15392m | 4.5m/s | -60.1°C | 4.8% | 0hPa | 0V | 00:00:00 | 00:00:00 | 00:00:00 | |
| LZ3DJ-18 | 2026-08-31 06:16:32 | 42.47877 | 23.56283 | 143° | 29km/h | 15290m | 4.4m/s | -59.9°C | 4.8% | 0hPa | 0V | 00:00:00 | 00:00:00 | 00:00:00 | |
| LZ3DJ-18 | 2026-08-31 06:16:11 | 42.47991 | 23.56151 | 137° | 29km/h | 15187m | 4.0m/s | -58.9°C | 4.3% | 0hPa | 0V | 00:00:00 | 00:00:00 | 00:00:00 | |
| LZ4TU-5 | 2026-08-31 06:15:57 | 42.48065 | 23.56072 | 131° | 24km/h | 15119m | 4.4m/s | -59.3°C | 4.2% | 0hPa | 0V | 00:00:00 | 00:00:00 | 00:00:00 | |
| LZ4TU-5 | 2026-08-31 06:15:52 | 42.48082 | 23.56045 | 140° | 20km/h | 15095m | 5.9m/s | -59.3°C | 4.2% | 0hPa | 0V | 00:00:00 | 00:00:00 | 00:00:00 | |
| LZ3DJ-18 | 2026-08-31 06:15:51 | 42.48086 | 23.56041 | 146° | 18km/h | 15090m | 4.1m/s | -59.3°C | 4.1% | 0hPa | 0V | 00:00:00 | 00:00:00 | 00:00:00 | |
| LZ3DJ-18 | 2026-08-31 06:15:30 | 42.48201 | 23.55924 | 145° | 35km/h | 14989m | 6.0m/s | -59.1°C | 4.2% | 0hPa | 0V | 00:00:00 | 00:00:00 | 00:00:00 | |
| LZ3DJ-18 | 2026-08-31 06:15:09 | 42.48388 | 23.55742 | 143° | 51km/h | 14880m | 3.7m/s | -58.7°C | 4.5% | 0hPa | 0V | 00:00:00 | 00:00:00 | 00:00:00 | |
| LZ3DJ-18 | 2026-08-31 06:14:49 | 42.48608 | 23.55505 | 141° | 60km/h | 14784m | 4.9m/s | -58.6°C | 5.1% | 0hPa | 0V | 00:00:00 | 00:00:00 | 00:00:00 | |
| LZ3DJ-18 | 2026-08-31 06:14:29 | 42.48827 | 23.55215 | 133° | 60km/h | 14689m | 5.7m/s | -58.7°C | 6.1% | 0hPa | 0V | 00:00:00 | 00:00:00 | 00:00:00 | |
| LZ4TU-5 | 2026-08-31 06:14:28 | 42.48837 | 23.55200 | 134° | 60km/h | 14684m | 4.2m/s | -58.7°C | 6.1% | 0hPa | 0V | 00:00:00 | 00:00:00 | 00:00:00 | |
| LZ4TU-5 | 2026-08-31 06:14:23 | 42.48887 | 23.55124 | 132° | 57km/h | 14660m | 4.7m/s | -59.1°C | 6.6% | 0hPa | 0V | 00:00:00 | 00:00:00 | 00:00:00 | |
| LZ3DJ-18 | 2026-08-31 06:14:09 | 42.49011 | 23.54901 | 122° | 57km/h | 14594m | 4.1m/s | -59.1°C | 7.1% | 0hPa | 0V | 00:00:00 | 00:00:00 | 00:00:00 | |
| LZ3DJ-18 | 2026-08-31 06:13:48 | 42.49155 | 23.54562 | 121° | 57km/h | 14493m | 4.7m/s | -59.3°C | 7.5% | 0hPa | 0V | 00:00:00 | 00:00:00 | 00:00:00 | |
| LZ3DJ-18 | 2026-08-31 06:13:27 | 42.49280 | 23.54234 | 120° | 51km/h | 14397m | 5.9m/s | -59.5°C | 7.4% | 0hPa | 0V | 00:00:00 | 00:00:00 | 00:00:00 | |
| LZ3DJ-18 | 2026-08-31 06:13:05 | 42.49414 | 23.53880 | 110° | 55km/h | 14295m | 3.0m/s | -59.2°C | 7.2% | 0hPa | 0V | 00:00:00 | 00:00:00 | 00:00:00 | |
| LZ4TU-5 | 2026-08-31 06:13:02 | 42.49423 | 23.53845 | 112° | 55km/h | 14285m | 4.8m/s | -59.2°C | 7.2% | 0hPa | 0V | 00:00:00 | 00:00:00 | 00:00:00 | |
| LZ4TU-5 | 2026-08-31 06:12:58 | 42.49449 | 23.53756 | 111° | 57km/h | 14261m | 4.9m/s | -59.0°C | 7.1% | 0hPa | 0V | 00:00:00 | 00:00:00 | 00:00:00 | |
| LZ3DJ-18 | 2026-08-31 06:12:43 | 42.49516 | 23.53513 | 105° | 55km/h | 14198m | 3.5m/s | -59.0°C | 7.4% | 0hPa | 0V | 00:00:00 | 00:00:00 | 00:00:00 | |
| LZ3DJ-18 | 2026-08-31 06:12:23 | 42.49596 | 23.53154 | 107° | 55km/h | 14104m | 4.4m/s | -59.0°C | 8.1% | 0hPa | 0V | 00:00:00 | 00:00:00 | 00:00:00 | |
| LZ4TU-5 | 2026-08-31 06:11:35 | 42.49743 | 23.52341 | 110° | 42km/h | 13870m | 4.8m/s | -58.1°C | 8.3% | 0hPa | 0V | 00:00:00 | 00:00:00 | 00:00:00 | |
| LZ4TU-5 | 2026-08-31 06:11:30 | 42.49761 | 23.52265 | 109° | 53km/h | 13843m | 5.1m/s | -58.0°C | 8.5% | 0hPa | 0V | 00:00:00 | 00:00:00 | 00:00:00 | |
| LZ3DJ-18 | 2026-08-31 06:10:23 | 42.50296 | 23.51429 | 143° | 57km/h | 13484m | 5.2m/s | -57.8°C | 11.4% | 0hPa | 0V | 00:00:00 | 00:00:00 | 00:00:00 | |
| LZ4TU-5 | 2026-08-31 06:10:03 | 42.50501 | 23.51182 | 138° | 51km/h | 13387m | 4.7m/s | -57.7°C | 12.0% | 0hPa | 0V | 00:00:00 | 00:00:00 | 00:00:00 | |
| LZ3DJ-18 | 2026-08-31 06:09:59 | 42.50537 | 23.51132 | 134° | 53km/h | 13367m | 4.5m/s | -57.8°C | 12.4% | 0hPa | 0V | 00:00:00 | 00:00:00 | 00:00:00 | |
| LZ4TU-5 | 2026-08-31 06:09:58 | 42.50546 | 23.51119 | 132° | 53km/h | 13362m | 5.7m/s | -57.8°C | 12.5% | 0hPa | 0V | 00:00:00 | 00:00:00 | 00:00:00 | |
| LZ4TU-5 | 2026-08-31 06:08:36 | 42.51214 | 23.50089 | 133° | 40km/h | 12974m | 4.7m/s | -56.7°C | 14.6% | 0hPa | 0V | 00:00:00 | 00:00:00 | 00:00:00 | |
| LZ4TU-5 | 2026-08-31 06:08:31 | 42.51250 | 23.50035 | 133° | 44km/h | 12952m | 5.3m/s | -56.9°C | 15.4% | 0hPa | 0V | 00:00:00 | 00:00:00 | 00:00:00 | |
| LZ3DJ-18 | 2026-08-31 06:07:03 | 42.52043 | 23.48938 | 141° | 62km/h | 12532m | 3.3m/s | -57.3°C | 28.8% | 0hPa | 0V | 00:00:00 | 00:00:00 | 00:00:00 | |
| LZ4TU-5 | 2026-08-31 06:07:00 | 42.52078 | 23.48897 | 138° | 60km/h | 12518m | 6.0m/s | -57.3°C | 29.3% | 0hPa | 0V | 00:00:00 | 00:00:00 | 00:00:00 | |
| LZ4TU-5 | 2026-08-31 06:06:56 | 42.52120 | 23.48843 | 136° | 57km/h | 12498m | 5.4m/s | -57.5°C | 31.3% | 0hPa | 0V | 00:00:00 | 00:00:00 | 00:00:00 | |
| LZ3DJ-18 | 2026-08-31 06:06:43 | 42.52240 | 23.48699 | 144° | 46km/h | 12434m | 5.0m/s | -57.4°C | 30.2% | 0hPa | 0V | 00:00:00 | 00:00:00 | 00:00:00 | |
| LZ3DJ-18 | 2026-08-31 06:06:22 | 42.52429 | 23.48484 | 141° | 51km/h | 12345m | 5.3m/s | -56.9°C | 32.6% | 0hPa | 0V | 00:00:00 | 00:00:00 | 00:00:00 | |
| LZ3DJ-18 | 2026-08-31 06:05:59 | 42.52641 | 23.48245 | 138° | 44km/h | 12227m | 4.5m/s | -56.4°C | 34.2% | 0hPa | 0V | 00:00:00 | 00:00:00 | 00:00:00 | |
| LZ3DJ-18 | 2026-08-31 06:05:39 | 42.52813 | 23.48026 | 136° | 44km/h | 12128m | 7.3m/s | -56.2°C | 34.8% | 0hPa | 0V | 00:00:00 | 00:00:00 | 00:00:00 | |
| LZ4TU-5 | 2026-08-31 06:05:32 | 42.52876 | 23.47966 | 153° | 46km/h | 12091m | 6.9m/s | -55.7°C | 35.6% | 0hPa | 0V | 00:00:00 | 00:00:00 | 00:00:00 | |
| LZ4TU-5 | 2026-08-31 06:05:28 | 42.52914 | 23.47934 | 142° | 42km/h | 12069m | 5.7m/s | -56.1°C | 36.1% | 0hPa | 0V | 00:00:00 | 00:00:00 | 00:00:00 | |
| LZ3DJ-18 | 2026-08-31 06:05:14 | 42.53053 | 23.47820 | 144° | 47km/h | 11999m | 5.5m/s | -55.6°C | 36.0% | 0hPa | 0V | 00:00:00 | 00:00:00 | 00:00:00 | |
| LZ3DJ-18 | 2026-08-31 06:04:53 | 42.53257 | 23.47630 | 139° | 44km/h | 11892m | 5.7m/s | -55.2°C | 35.2% | 0hPa | 0V | 00:00:00 | 00:00:00 | 00:00:00 | |
| LZ3DJ-18 | 2026-08-31 06:04:33 | 42.53437 | 23.47404 | 135° | 42km/h | 11778m | 3.7m/s | -54.5°C | 35.1% | 0hPa | 0V | 00:00:00 | 00:00:00 | 00:00:00 | |
| LZ3DJ-18 | 2026-08-31 06:04:12 | 42.53625 | 23.47164 | 140° | 51km/h | 11675m | 4.3m/s | -53.7°C | 33.7% | 0hPa | 0V | 00:00:00 | 00:00:00 | 00:00:00 | |
| LZ4TU-5 | 2026-08-31 06:04:05 | 42.53697 | 23.47074 | 131° | 49km/h | 11638m | 4.3m/s | -53.3°C | 31.9% | 0hPa | 0V | 00:00:00 | 00:00:00 | 00:00:00 | |
| LZ4TU-5 | 2026-08-31 06:04:00 | 42.53734 | 23.47007 | 129° | 49km/h | 11611m | 5.9m/s | -53.1°C | 31.6% | 0hPa | 0V | 00:00:00 | 00:00:00 | 00:00:00 | |
| LZ3DJ-18 | 2026-08-31 06:03:52 | 42.53806 | 23.46911 | 135° | 51km/h | 11569m | 5.7m/s | -52.7°C | 30.4% | 0hPa | 0V | 00:00:00 | 00:00:00 | 00:00:00 | |
| LZ3DJ-18 | 2026-08-31 06:03:32 | 42.53977 | 23.46669 | 137° | 47km/h | 11464m | 5.7m/s | -51.7°C | 30.0% | 0hPa | 0V | 00:00:00 | 00:00:00 | 00:00:00 | |
| LZ3DJ-18 | 2026-08-31 06:03:11 | 42.54146 | 23.46406 | 134° | 44km/h | 11350m | 3.1m/s | -50.7°C | 28.9% | 0hPa | 0V | 00:00:00 | 00:00:00 | 00:00:00 | |
| LZ4TU-5 | 2026-08-31 06:02:35 | 42.54400 | 23.45949 | 126° | 46km/h | 11161m | 6.4m/s | -49.2°C | 30.7% | 0hPa | 0V | 00:00:00 | 00:00:00 | 00:00:00 | |
| LZ4TU-5 | 2026-08-31 06:02:30 | 42.54435 | 23.45895 | 138° | 40km/h | 11130m | 8.6m/s | -49.0°C | 31.4% | 0hPa | 0V | 00:00:00 | 00:00:00 | 00:00:00 | |
| LZ3DJ-18 | 2026-08-31 06:01:07 | 42.55101 | 23.45196 | 149° | 40km/h | 10688m | 4.1m/s | -45.4°C | 26.3% | 0hPa | 0V | 00:00:00 | 00:00:00 | 00:00:00 | |
| LZ4TU-5 | 2026-08-31 06:01:06 | 42.55110 | 23.45188 | 150° | 42km/h | 10682m | 6.6m/s | -45.4°C | 26.4% | 0hPa | 0V | 00:00:00 | 00:00:00 | 00:00:00 | |
| LZ4TU-5 | 2026-08-31 06:01:02 | 42.55146 | 23.45163 | 156° | 37km/h | 10663m | 3.6m/s | -45.2°C | 27.0% | 0hPa | 0V | 00:00:00 | 00:00:00 | 00:00:00 | |
| LZ4TU-5 | 2026-08-31 06:00:53 | 42.55223 | 23.45098 | 149° | 44km/h | 10617m | 4.9m/s | -44.9°C | 27.5% | 0hPa | 0V | 00:00:00 | 00:00:00 | 00:00:00 | |
| LZ3DJ-18 | 2026-08-31 06:00:37 | 42.55371 | 23.44974 | 151° | 46km/h | 10534m | 3.5m/s | -44.2°C | 24.8% | 0hPa | 0V | 00:00:00 | 00:00:00 | 00:00:00 | |
| LZ3DJ-18 | 2026-08-31 06:00:16 | 42.55564 | 23.44822 | 155° | 40km/h | 10417m | 5.8m/s | -43.1°C | 20.8% | 0hPa | 0V | 00:00:00 | 00:00:00 | 00:00:00 | |
| LZ3DJ-18 | 2026-08-31 05:59:55 | 42.55745 | 23.44670 | 147° | 42km/h | 10309m | 5.2m/s | -42.2°C | 18.6% | 0hPa | 0V | 00:00:00 | 00:00:00 | 00:00:00 | |
| LZ3DJ-18 | 2026-08-31 05:59:35 | 42.55937 | 23.44528 | 147° | 46km/h | 10207m | 3.7m/s | -41.3°C | 18.4% | 0hPa | 0V | 00:00:00 | 00:00:00 | 00:00:00 | |
| LZ4TU-5 | 2026-08-31 05:59:28 | 42.56004 | 23.44466 | 148° | 44km/h | 10170m | 4.2m/s | -41.0°C | 16.4% | 0hPa | 0V | 00:00:00 | 00:00:00 | 00:00:00 | |
| LZ4TU-5 | 2026-08-31 05:59:23 | 42.56044 | 23.44437 | 162° | 33km/h | 10142m | 4.5m/s | -40.7°C | 15.4% | 0hPa | 0V | 00:00:00 | 00:00:00 | 00:00:00 | |
| LZ3DJ-18 | 2026-08-31 05:59:14 | 42.56121 | 23.44384 | 151° | 47km/h | 10093m | 6.6m/s | -40.3°C | 14.1% | 0hPa | 0V | 00:00:00 | 00:00:00 | 00:00:00 | |
| LZ3DJ-18 | 2026-08-31 05:58:53 | 42.56320 | 23.44241 | 155° | 40km/h | 9978m | 5.9m/s | -39.2°C | 13.3% | 0hPa | 0V | 00:00:00 | 00:00:00 | 00:00:00 | |
| LZ3DJ-18 | 2026-08-31 05:58:33 | 42.56492 | 23.44130 | 153° | 35km/h | 9875m | 5.0m/s | -38.2°C | 12.4% | 0hPa | 0V | 00:00:00 | 00:00:00 | 00:00:00 | |
| LZ3DJ-18 | 2026-08-31 05:58:13 | 42.56690 | 23.44001 | 151° | 42km/h | 9772m | 6.6m/s | -37.2°C | 12.0% | 0hPa | 0V | 00:00:00 | 00:00:00 | 00:00:00 | |
| LZ3DJ-18 | 2026-08-31 05:57:52 | 42.56897 | 23.43873 | 154° | 47km/h | 9664m | 4.2m/s | -36.5°C | 12.8% | 0hPa | 0V | 00:00:00 | 00:00:00 | 00:00:00 | |
| LZ4TU-5 | 2026-08-31 05:57:47 | 42.56942 | 23.43840 | 149° | 38km/h | 9639m | 5.9m/s | -36.3°C | 12.3% | 0hPa | 0V | 00:00:00 | 00:00:00 | 00:00:00 | |
| LZ3DJ-18 | 2026-08-31 05:57:31 | 42.57121 | 23.43762 | 151° | 47km/h | 9555m | 5.5m/s | -35.5°C | 12.0% | 0hPa | 0V | 00:00:00 | 00:00:00 | 00:00:00 | |
| LZ3DJ-18 | 2026-08-31 05:57:11 | 42.57348 | 23.43632 | 159° | 49km/h | 9455m | 6.0m/s | -34.8°C | 13.9% | 0hPa | 0V | 00:00:00 | 00:00:00 | 00:00:00 | |
| LZ3DJ-18 | 2026-08-31 05:56:50 | 42.57603 | 23.43536 | 182° | 49km/h | 9345m | 6.7m/s | -34.3°C | 15.2% | 0hPa | 0V | 00:00:00 | 00:00:00 | 00:00:00 | |
| LZ3DJ-18 | 2026-08-31 05:56:29 | 42.57841 | 23.43477 | 169° | 47km/h | 9235m | 5.3m/s | -33.4°C | 14.9% | 0hPa | 0V | 00:00:00 | 00:00:00 | 00:00:00 | |
| LZ4TU-5 | 2026-08-31 05:56:24 | 42.57895 | 23.43458 | 164° | 40km/h | 9208m | 6.6m/s | -33.2°C | 14.9% | 0hPa | 0V | 00:00:00 | 00:00:00 | 00:00:00 | |
| LZ4TU-5 | 2026-08-31 05:56:20 | 42.57935 | 23.43453 | 183° | 40km/h | 9188m | 4.8m/s | -33.0°C | 15.0% | 0hPa | 0V | 00:00:00 | 00:00:00 | 00:00:00 | |
| LZ3DJ-18 | 2026-08-31 05:56:09 | 42.58042 | 23.43452 | 170° | 38km/h | 9127m | 4.5m/s | -32.4°C | 14.6% | 0hPa | 0V | 00:00:00 | 00:00:00 | 00:00:00 | |
| LZ3DJ-18 | 2026-08-31 05:55:47 | 42.58245 | 23.43414 | 175° | 33km/h | 9016m | 5.4m/s | -31.5°C | 14.7% | 0hPa | 0V | 00:00:00 | 00:00:00 | 00:00:00 | |
| LZ3DJ-18 | 2026-08-31 05:55:26 | 42.58442 | 23.43389 | 186° | 31km/h | 8907m | 3.6m/s | -30.7°C | 14.4% | 0hPa | 0V | 00:00:00 | 00:00:00 | 00:00:00 | |
| LZ4TU-5 | 2026-08-31 05:54:51 | 42.58760 | 23.43410 | 193° | 37km/h | 8725m | 4.1m/s | -29.2°C | 13.5% | 0hPa | 0V | 00:00:00 | 00:00:00 | 00:00:00 | |
| LZ3DJ-18 | 2026-08-31 05:54:34 | 42.58887 | 23.43422 | 170° | 31km/h | 8629m | 5.8m/s | -28.6°C | 16.5% | 0hPa | 0V | 00:00:00 | 00:00:00 | 00:00:00 | |
| LZ3DJ-18 | 2026-08-31 05:54:13 | 42.59059 | 23.43413 | 189° | 38km/h | 8523m | 6.0m/s | -27.8°C | 18.2% | 0hPa | 0V | 00:00:00 | 00:00:00 | 00:00:00 | |
| LZ3DJ-18 | 2026-08-31 05:53:53 | 42.59211 | 23.43407 | 175° | 33km/h | 8424m | 4.9m/s | -26.9°C | 13.0% | 0hPa | 0V | 00:00:00 | 00:00:00 | 00:00:00 | |
| LZ3DJ-18 | 2026-08-31 05:53:31 | 42.59369 | 23.43391 | 185° | 27km/h | 8311m | 5.6m/s | -25.9°C | 12.6% | 0hPa | 0V | 00:00:00 | 00:00:00 | 00:00:00 | |
| LZ4TU-5 | 2026-08-31 05:53:27 | 42.59400 | 23.43390 | 175° | 35km/h | 8292m | 5.1m/s | -25.8°C | 11.6% | 0hPa | 0V | 00:00:00 | 00:00:00 | 00:00:00 | |
| LZ4TU-5 | 2026-08-31 05:53:23 | 42.59434 | 23.43383 | 174° | 33km/h | 8273m | 6.8m/s | -25.6°C | 10.8% | 0hPa | 0V | 00:00:00 | 00:00:00 | 00:00:00 | |
| LZ3DJ-18 | 2026-08-31 05:53:10 | 42.59509 | 23.43385 | 187° | 29km/h | 8206m | 4.9m/s | -25.0°C | 9.4% | 0hPa | 0V | 00:00:00 | 00:00:00 | 00:00:00 | |
| LZ3DJ-18 | 2026-08-31 05:52:50 | 42.59658 | 23.43386 | 177° | 33km/h | 8099m | 7.6m/s | -24.0°C | 8.0% | 0hPa | 0V | 00:00:00 | 00:00:00 | 00:00:00 | |
| LZ3DJ-18 | 2026-08-31 05:52:28 | 42.59826 | 23.43356 | 161° | 37km/h | 7977m | 5.4m/s | -23.1°C | 7.7% | 0hPa | 0V | 00:00:00 | 00:00:00 | 00:00:00 | |
| LZ3DJ-18 | 2026-08-31 05:52:07 | 42.59964 | 23.43292 | 155° | 33km/h | 7876m | 5.2m/s | -22.3°C | 7.0% | 0hPa | 0V | 00:00:00 | 00:00:00 | 00:00:00 | |
| LZ4TU-5 | 2026-08-31 05:51:58 | 42.60032 | 23.43249 | 152° | 35km/h | 7821m | 1.1m/s | -21.8°C | 6.9% | 0hPa | 0V | 00:00:00 | 00:00:00 | 00:00:00 | |
| LZ4TU-5 | 2026-08-31 05:51:53 | 42.60065 | 23.43230 | 156° | 29km/h | 7790m | 6.3m/s | -21.5°C | 6.6% | 0hPa | 0V | 00:00:00 | 00:00:00 | 00:00:00 | |
| LZ4TU-5 | 2026-08-31 05:51:48 | 42.60099 | 23.43205 | 159° | 31km/h | 7761m | 3.1m/s | -21.2°C | 6.6% | 0hPa | 0V | 00:00:00 | 00:00:00 | 00:00:00 | |
| LZ3DJ-18 | 2026-08-31 05:51:45 | 42.60114 | 23.43197 | 160° | 31km/h | 7749m | 7.3m/s | -21.1°C | 6.5% | 0hPa | 0V | 00:00:00 | 00:00:00 | 00:00:00 | |
| LZ3DJ-18 | 2026-08-31 05:51:20 | 42.60300 | 23.43068 | 148° | 35km/h | 7608m | 7.3m/s | -19.9°C | 5.8% | 0hPa | 0V | 00:00:00 | 00:00:00 | 00:00:00 | |
| LZ3DJ-18 | 2026-08-31 05:50:59 | 42.60424 | 23.42954 | 148° | 33km/h | 7497m | 6.6m/s | -19.3°C | 6.7% | 0hPa | 0V | 00:00:00 | 00:00:00 | 00:00:00 | |
| LZ3DJ-18 | 2026-08-31 05:50:34 | 42.60603 | 23.42783 | 139° | 33km/h | 7358m | 5.8m/s | -18.3°C | 5.7% | 0hPa | 0V | 00:00:00 | 00:00:00 | 00:00:00 | |
| LZ4TU-5 | 2026-08-31 05:50:25 | 42.60668 | 23.42736 | 167° | 35km/h | 7308m | 1.3m/s | -18.0°C | 0% | 0hPa | 0V | 00:00:00 | 00:00:00 | 00:00:00 | |
| LZ4TU-5 | 2026-08-31 05:50:21 | 42.60703 | 23.42724 | 163° | 35km/h | 7285m | 3.8m/s | 0°C | 0% | 0hPa | 0V | 00:00:00 | 00:00:00 | 00:00:00 | |
| LZ3DJ-18 | 2026-08-31 05:50:04 | 42.60815 | 23.42694 | 175° | 24km/h | 7196m | 5.0m/s | -17.1°C | 6.1% | 0hPa | 0V | 00:00:00 | 00:00:00 | 00:00:00 | |
| LZ3DJ-18 | 2026-08-31 05:49:43 | 42.60926 | 23.42640 | 164° | 26km/h | 7091m | 3.6m/s | -16.2°C | 5.3% | 0hPa | 0V | 00:00:00 | 00:00:00 | 00:00:00 | |
| LZ3DJ-18 | 2026-08-31 05:49:23 | 42.61066 | 23.42599 | 155° | 29km/h | 6977m | 4.3m/s | -15.2°C | 4.0% | 0hPa | 0V | 00:00:00 | 00:00:00 | 00:00:00 | |
| LZ3DJ-18 | 2026-08-31 05:49:02 | 42.61212 | 23.42526 | 153° | 24km/h | 6865m | 5.8m/s | -14.5°C | 4.2% | 0hPa | 0V | 00:00:00 | 00:00:00 | 00:00:00 | |
| LZ4TU-5 | 2026-08-31 05:48:59 | 42.61230 | 23.42516 | 166° | 26km/h | 6851m | 6.8m/s | 0°C | 0% | 0hPa | 0V | 00:00:00 | 00:00:00 | 00:00:00 | |
| LZ4TU-5 | 2026-08-31 05:48:54 | 42.61256 | 23.42508 | 158° | 16km/h | 6824m | 6.6m/s | 0°C | 0% | 0hPa | 0V | 00:00:00 | 00:00:00 | 00:00:00 | |
| LZ3DJ-18 | 2026-08-31 05:48:42 | 42.61319 | 23.42475 | 150° | 16km/h | 6754m | 3.4m/s | -13.7°C | 4.7% | 0hPa | 0V | 00:00:00 | 00:00:00 | 00:00:00 | |
| LZ3DJ-18 | 2026-08-31 05:48:22 | 42.61414 | 23.42404 | 153° | 24km/h | 6639m | 5.7m/s | -12.9°C | 4.6% | 0hPa | 0V | 00:00:00 | 00:00:00 | 00:00:00 | |
| LZ3DJ-18 | 2026-08-31 05:48:01 | 42.61525 | 23.42306 | 143° | 29km/h | 6521m | 5.4m/s | -12.2°C | 4.3% | 0hPa | 0V | 00:00:00 | 00:00:00 | 00:00:00 | |
| LZ3DJ-18 | 2026-08-31 05:47:40 | 42.61618 | 23.42204 | 147° | 22km/h | 6416m | 4.2m/s | -11.3°C | 3.4% | 0hPa | 0V | 00:00:00 | 00:00:00 | 00:00:00 | |
| LZ4TU-5 | 2026-08-31 05:47:31 | 42.61662 | 23.42160 | 136° | 20km/h | 6362m | 6.9m/s | 0°C | 0% | 0hPa | 0V | 00:00:00 | 00:00:00 | 00:00:00 | |
| LZ4TU-5 | 2026-08-31 05:47:27 | 42.61678 | 23.42140 | 143° | 20km/h | 6338m | 4.0m/s | 0°C | 0% | 0hPa | 0V | 00:00:00 | 00:00:00 | 00:00:00 | |
| LZ3DJ-18 | 2026-08-31 05:47:20 | 42.61708 | 23.42119 | 159° | 27km/h | 6300m | 6.8m/s | -10.7°C | 3.4% | 0hPa | 0V | 00:00:00 | 00:00:00 | 00:00:00 | |
| LZ3DJ-18 | 2026-08-31 05:47:00 | 42.61809 | 23.42053 | 176° | 18km/h | 6189m | 3.0m/s | -9.9°C | 3.3% | 0hPa | 0V | 00:00:00 | 00:00:00 | 00:00:00 | |
| LZ3DJ-18 | 2026-08-31 05:46:40 | 42.61909 | 23.41983 | 154° | 29km/h | 6086m | 3.9m/s | -9.2°C | 3.5% | 0hPa | 0V | 00:00:00 | 00:00:00 | 00:00:00 | |
| LZ3DJ-18 | 2026-08-31 05:46:19 | 42.62034 | 23.41898 | 138° | 29km/h | 5972m | 8.3m/s | -9.3°C | 15.6% | 0hPa | 0V | 00:00:00 | 00:00:00 | 00:00:00 | |
| LZ3DJ-18 | 2026-08-31 05:45:58 | 42.62164 | 23.41750 | 133° | 40km/h | 5855m | 3.6m/s | -8.6°C | 14.4% | 0hPa | 0V | 00:00:00 | 00:00:00 | 00:00:00 | |
| LZ4TU-5 | 2026-08-31 05:45:56 | 42.62177 | 23.41731 | 137° | 37km/h | 5846m | 5.4m/s | 0°C | 0% | 0hPa | 0V | 00:00:00 | 00:00:00 | 00:00:00 | |
| LZ4TU-5 | 2026-08-31 05:45:51 | 42.62200 | 23.41698 | 128° | 37km/h | 5824m | 6.2m/s | 0°C | 0% | 0hPa | 0V | 00:00:00 | 00:00:00 | 00:00:00 | |
| LZ4TU-5 | 2026-08-31 05:45:46 | 42.62242 | 23.41651 | 153° | 33km/h | 5784m | 5.8m/s | 0°C | 0% | 0hPa | 0V | 00:00:00 | 00:00:00 | 00:00:00 | |
| LZ3DJ-18 | 2026-08-31 05:45:37 | 42.62298 | 23.41598 | 135° | 33km/h | 5735m | 5.7m/s | -8.4°C | 16.0% | 0hPa | 0V | 00:00:00 | 00:00:00 | 00:00:00 | |
| LZ3DJ-18 | 2026-08-31 05:45:16 | 42.62418 | 23.41418 | 141° | 42km/h | 5611m | 6.9m/s | -8.1°C | 44.7% | 0hPa | 0V | 00:00:00 | 00:00:00 | 00:00:00 | |
| LZ3DJ-18 | 2026-08-31 05:44:55 | 42.62556 | 23.41192 | 129° | 35km/h | 5503m | 5.4m/s | -8.0°C | 61.6% | 0hPa | 0V | 00:00:00 | 00:00:00 | 00:00:00 | |
| LZ3DJ-18 | 2026-08-31 05:44:35 | 42.62666 | 23.40982 | 127° | 27km/h | 5379m | 6.3m/s | -6.9°C | 52.3% | 0hPa | 0V | 00:00:00 | 00:00:00 | 00:00:00 | |
| LZ4TU-5 | 2026-08-31 05:44:23 | 42.62734 | 23.40891 | 127° | 24km/h | 5313m | 5.7m/s | 0°C | 0% | 0hPa | 0V | 00:00:00 | 00:00:00 | 00:00:00 | |
| LZ4TU-5 | 2026-08-31 05:44:18 | 42.62755 | 23.40856 | 135° | 29km/h | 5280m | 8.3m/s | 0°C | 0% | 0hPa | 0V | 00:00:00 | 00:00:00 | 00:00:00 | |
| LZ3DJ-18 | 2026-08-31 05:44:14 | 42.62771 | 23.40834 | 140° | 35km/h | 5262m | 7.8m/s | -5.7°C | 48.5% | 0hPa | 0V | 00:00:00 | 00:00:00 | 00:00:00 | |
| LZ3DJ-18 | 2026-08-31 05:43:54 | 42.62893 | 23.40684 | 124° | 20km/h | 5144m | 5.7m/s | -4.9°C | 50.3% | 0hPa | 0V | 00:00:00 | 00:00:00 | 00:00:00 | |
| LZ3DJ-18 | 2026-08-31 05:43:34 | 42.62950 | 23.40576 | 108° | 20km/h | 5033m | 5.3m/s | -4.4°C | 54.5% | 0hPa | 0V | 00:00:00 | 00:00:00 | 00:00:00 | |
| LZ3DJ-18 | 2026-08-31 05:43:13 | 42.63046 | 23.40445 | 151° | 16km/h | 4910m | 8.6m/s | -4.0°C | 57.6% | 0hPa | 0V | 00:00:00 | 00:00:00 | 00:00:00 | |
| LZ4TU-5 | 2026-08-31 05:42:55 | 42.63122 | 23.40381 | 161° | 13km/h | 4818m | 7.4m/s | 0°C | 0% | 0hPa | 0V | 00:00:00 | 00:00:00 | 00:00:00 | |
| LZ3DJ-18 | 2026-08-31 05:42:52 | 42.63134 | 23.40380 | 175° | 22km/h | 4800m | 5.8m/s | -3.3°C | 61.4% | 0hPa | 0V | 00:00:00 | 00:00:00 | 00:00:00 | |
| LZ4TU-5 | 2026-08-31 05:42:51 | 42.63140 | 23.40379 | 165° | 22km/h | 4793m | 7.4m/s | 0°C | 0% | 0hPa | 0V | 00:00:00 | 00:00:00 | 00:00:00 | |
| LZ3DJ-18 | 2026-08-31 05:42:31 | 42.63216 | 23.40347 | 182° | 20km/h | 4681m | 5.3m/s | -2.2°C | 56.1% | 0hPa | 0V | 00:00:00 | 00:00:00 | 00:00:00 | |
| LZ3DJ-18 | 2026-08-31 05:42:12 | 42.63289 | 23.40276 | 119° | 15km/h | 4575m | 6.4m/s | -1.1°C | 44.9% | 0hPa | 0V | 00:00:00 | 00:00:00 | 00:00:00 | |
| LZ3DJ-18 | 2026-08-31 05:41:46 | 42.63371 | 23.40139 | 136° | 22km/h | 4427m | 6.5m/s | -0.6°C | 36.2% | 0hPa | 0V | 00:00:00 | 00:00:00 | 00:00:00 | |
| LZ4TU-5 | 2026-08-31 05:41:27 | 42.63465 | 23.39991 | 122° | 27km/h | 4325m | 5.2m/s | 0°C | 0% | 0hPa | 0V | 00:00:00 | 00:00:00 | 00:00:00 | |
| LZ3DJ-18 | 2026-08-31 05:41:25 | 42.63472 | 23.39977 | 122° | 20km/h | 4312m | 8.2m/s | -0.1°C | 57.0% | 0hPa | 0V | 00:00:00 | 00:00:00 | 00:00:00 | |
| LZ4TU-5 | 2026-08-31 05:41:23 | 42.63478 | 23.39966 | 134° | 26km/h | 4299m | 3.4m/s | 0°C | 0% | 0hPa | 0V | 00:00:00 | 00:00:00 | 00:00:00 | |
| LZ3DJ-18 | 2026-08-31 05:41:03 | 42.63568 | 23.39801 | 137° | 38km/h | 4195m | 5.5m/s | 1.2°C | 16.7% | 0hPa | 0V | 00:00:00 | 00:00:00 | 00:00:00 | |
| LZ3DJ-18 | 2026-08-31 05:40:42 | 42.63690 | 23.39638 | 125° | 31km/h | 4085m | 4.0m/s | 1.5°C | 40.2% | 0hPa | 0V | 00:00:00 | 00:00:00 | 00:00:00 | |
| LZ3DJ-18 | 2026-08-31 05:40:21 | 42.63818 | 23.39501 | 142° | 27km/h | 3975m | 5.5m/s | 2.0°C | 61.2% | 0hPa | 0V | 00:00:00 | 00:00:00 | 00:00:00 | |
| LZ4TU-5 | 2026-08-31 05:39:59 | 42.63979 | 23.39349 | 153° | 29km/h | 3853m | 4.3m/s | 0°C | 0% | 0hPa | 0V | 00:00:00 | 00:00:00 | 00:00:00 | |
| LZ3DJ-18 | 2026-08-31 05:39:57 | 42.63989 | 23.39339 | 137° | 24km/h | 3844m | 6.7m/s | 2.6°C | 65.6% | 0hPa | 0V | 00:00:00 | 00:00:00 | 00:00:00 | |
| LZ4TU-5 | 2026-08-31 05:39:54 | 42.64007 | 23.39319 | 145° | 38km/h | 3824m | 5.1m/s | 0°C | 0% | 0hPa | 0V | 00:00:00 | 00:00:00 | 00:00:00 | |
| LZ3DJ-18 | 2026-08-31 05:39:36 | 42.64122 | 23.39230 | 162° | 37km/h | 3727m | 5.2m/s | 2.9°C | 79.2% | 0hPa | 0V | 00:00:00 | 00:00:00 | 00:00:00 | |
| LZ3DJ-18 | 2026-08-31 05:39:15 | 42.64299 | 23.39109 | 158° | 29km/h | 3594m | 6.5m/s | 3.7°C | 81.3% | 0hPa | 0V | 00:00:00 | 00:00:00 | 00:00:00 | |
| LZ3DJ-18 | 2026-08-31 05:38:55 | 42.64434 | 23.38995 | 171° | 35km/h | 3483m | 4.1m/s | 4.3°C | 89.0% | 0hPa | 0V | 00:00:00 | 00:00:00 | 00:00:00 | |
| LZ3DJ-18 | 2026-08-31 05:38:33 | 42.64580 | 23.38924 | 167° | 44km/h | 3360m | 2.8m/s | 5.1°C | 89.9% | 0hPa | 0V | 00:00:00 | 00:00:00 | 00:00:00 | |
| LZ4TU-5 | 2026-08-31 05:38:24 | 42.64651 | 23.38878 | 144° | 29km/h | 3305m | 5.1m/s | 0°C | 0% | 0hPa | 0V | 00:00:00 | 00:00:00 | 00:00:00 | |
| LZ4TU-5 | 2026-08-31 05:38:20 | 42.64681 | 23.38848 | 149° | 40km/h | 3279m | 8.3m/s | 0°C | 0% | 0hPa | 0V | 00:00:00 | 00:00:00 | 00:00:00 | |
| LZ3DJ-18 | 2026-08-31 05:38:13 | 42.64739 | 23.38812 | 170° | 29km/h | 3238m | 6.6m/s | 6.2°C | 87.1% | 0hPa | 0V | 00:00:00 | 00:00:00 | 00:00:00 | |
| LZ3DJ-18 | 2026-08-31 05:37:52 | 42.64870 | 23.38693 | 142° | 37km/h | 3126m | 6.0m/s | 7.2°C | 83.5% | 0hPa | 0V | 00:00:00 | 00:00:00 | 00:00:00 | |
| LZ3DJ-18 | 2026-08-31 05:37:31 | 42.65001 | 23.38547 | 126° | 24km/h | 3010m | 4.4m/s | 8.3°C | 76.5% | 0hPa | 0V | 00:00:00 | 00:00:00 | 00:00:00 | |
| LZ3DJ-18 | 2026-08-31 05:37:11 | 42.65121 | 23.38411 | 137° | 31km/h | 2898m | 5.5m/s | 9.1°C | 78.4% | 0hPa | 0V | 00:00:00 | 00:00:00 | 00:00:00 | |
| LZ4TU-5 | 2026-08-31 05:36:52 | 42.65227 | 23.38264 | 132° | 40km/h | 2790m | 3.7m/s | 0°C | 0% | 0hPa | 0V | 00:00:00 | 00:00:00 | 00:00:00 | |
| LZ3DJ-18 | 2026-08-31 05:36:51 | 42.65233 | 23.38253 | 128° | 38km/h | 2785m | 6.8m/s | 10.1°C | 73.8% | 0hPa | 0V | 00:00:00 | 00:00:00 | 00:00:00 | |
| LZ4TU-5 | 2026-08-31 05:36:48 | 42.65245 | 23.38229 | 141° | 20km/h | 2765m | 5.4m/s | 0°C | 0% | 0hPa | 0V | 00:00:00 | 00:00:00 | 00:00:00 | |
| LZ3DJ-18 | 2026-08-31 05:36:31 | 42.65355 | 23.38130 | 152° | 33km/h | 2661m | 3.6m/s | 11.2°C | 70.4% | 0hPa | 0V | 00:00:00 | 00:00:00 | 00:00:00 | |
| LZ3DJ-18 | 2026-08-31 05:36:11 | 42.65485 | 23.38031 | 152° | 27km/h | 2548m | 6.5m/s | 11.9°C | 52.1% | 0hPa | 0V | 00:00:00 | 00:00:00 | 00:00:00 | |
| LZ3DJ-18 | 2026-08-31 05:35:51 | 42.65598 | 23.37984 | 183° | 16km/h | 2439m | 5.9m/s | 12.7°C | 48.5% | 0hPa | 0V | 00:00:00 | 00:00:00 | 00:00:00 | |
| LZ4TU-5 | 2026-08-31 05:35:31 | 42.65667 | 23.37941 | 126° | 15km/h | 2321m | 4.7m/s | 0°C | 0% | 0hPa | 0V | 00:00:00 | 00:00:00 | 00:00:00 | |
| LZ3DJ-18 | 2026-08-31 05:35:29 | 42.65669 | 23.37937 | 127° | 15km/h | 2315m | 7.3m/s | 13.3°C | 55.2% | 0hPa | 0V | 00:00:00 | 00:00:00 | 00:00:00 | |
| LZ4TU-5 | 2026-08-31 05:35:26 | 42.65676 | 23.37934 | 0° | 0km/h | 2291m | 6.2m/s | 0°C | 0% | 0hPa | 0V | 00:00:00 | 00:00:00 | 00:00:00 | |
| LZ3DJ-18 | 2026-08-31 05:35:08 | 42.65705 | 23.37888 | 114° | 11km/h | 2200m | 5.8m/s | 14.0°C | 64.7% | 0hPa | 0V | 00:00:00 | 00:00:00 | 00:00:00 | |
| LZ3DJ-18 | 2026-08-31 05:34:48 | 42.65708 | 23.37852 | 114° | 5km/h | 2081m | 5.2m/s | 14.8°C | 68.2% | 0hPa | 0V | 00:00:00 | 00:00:00 | 00:00:00 | |
| LZ4TU-5 | 2026-08-31 05:34:09 | 42.65801 | 23.37830 | 167° | 2km/h | 1865m | 5.7m/s | 0°C | 0% | 0hPa | 0V | 00:00:00 | 00:00:00 | 00:00:00 | |
| LZ3DJ-18 | 2026-08-31 05:34:06 | 42.65803 | 23.37830 | 149° | 4km/h | 1851m | 7.5m/s | 16.3°C | 71.2% | 0hPa | 0V | 00:00:00 | 00:00:00 | 00:00:00 | |
| LZ4TU-5 | 2026-08-31 05:34:04 | 42.65802 | 23.37827 | 5° | 5km/h | 1833m | 6.4m/s | 0°C | 0% | 0hPa | 0V | 00:00:00 | 00:00:00 | 00:00:00 | |
| LZ3DJ-18 | 2026-08-31 05:33:45 | 42.65801 | 23.37797 | 228° | 2km/h | 1732m | 5.1m/s | 17.0°C | 70.0% | 0hPa | 0V | 00:00:00 | 00:00:00 | 00:00:00 | |
| LZ3DJ-18 | 2026-08-31 05:33:25 | 42.65790 | 23.37819 | 323° | 9km/h | 1607m | 5.2m/s | 17.5°C | 62.1% | 0hPa | 0V | 00:00:00 | 00:00:00 | 00:00:00 | |
| LZ3DJ-18 | 2026-08-31 05:33:05 | 42.65769 | 23.37881 | 282° | 4km/h | 1498m | 4.9m/s | 18.0°C | 60.0% | 0hPa | 0V | 00:00:00 | 00:00:00 | 00:00:00 | |
| LZ3DJ-18 | 2026-08-31 05:32:43 | 42.65726 | 23.37934 | 321° | 9km/h | 1383m | 5.2m/s | 18.3°C | 57.4% | 0hPa | 0V | 00:00:00 | 00:00:00 | 00:00:00 | |
| LZ3DJ-18 | 2026-08-31 05:32:23 | 42.65659 | 23.37989 | 352° | 15km/h | 1268m | 4.8m/s | 18.9°C | 54.4% | 0hPa | 0V | 00:00:00 | 00:00:00 | 00:00:00 | |
| LZ3DJ-18 | 2026-08-31 05:32:02 | 42.65589 | 23.38057 | 335° | 22km/h | 1158m | 5.7m/s | 18.7°C | 54.5% | 0hPa | 0V | 00:00:00 | 00:00:00 | 00:00:00 | |
| LZ3DJ-18 | 2026-08-31 05:31:42 | 42.65531 | 23.38119 | 307° | 9km/h | 1049m | 8.5m/s | 18.9°C | 0% | 0hPa | 0V | 00:00:00 | 00:00:00 | 00:00:00 | |
| LZ3DJ-18 | 2026-08-31 05:31:22 | 42.65492 | 23.38207 | 290° | 15km/h | 933m | 6.1m/s | 0°C | 0% | 0hPa | 0V | 00:00:00 | 00:00:00 | 00:00:00 | |
| LZ3DJ-18 | 2026-08-31 05:31:01 | 42.65464 | 23.38273 | 304° | 26km/h | 822m | 6.9m/s | 0°C | 0% | 0hPa | 0V | 00:00:00 | 00:00:00 | 00:00:00 | |
| LZ3DJ-18 | 2026-08-31 05:30:41 | 42.65421 | 23.38298 | 239° | 24km/h | 702m | 5.7m/s | 0°C | 0% | 0hPa | 0V | 00:00:00 | 00:00:00 | 00:00:00 |